Time;durP1;ratioP1;P1;durP2;ratioP2;P2;SDS_P1;SDS_P2;PMS_P1;PMS_P2;Temp;Humidity;BMP_temperature;BMP_pressure;BME280_temperature;BME280_humidity;BME280_pressure;Samples;Min_cycle;Max_cycle;Signal;HPM_P1;HPM_P2
2022/02/23 00:00:35;;;;;;;13.68;3.08;;;;;;;;;;4977835;28;20092;-87
2022/02/23 00:03:01;;;;;;;18.83;3.45;;;;;;;4.94;100.00;67325.03;4995022;28;20539;-88
2022/02/23 00:05:26;;;;;;;17.30;4.15;;;;;;;4.93;100.00;67318.06;4995869;28;20963;-88
2022/02/23 00:07:51;;;;;;;19.98;4.18;;;;;;;;;;5005129;28;20407;-89
2022/02/23 00:10:17;;;;;;;11.65;3.72;;;;;;;;;;5000867;28;20048;-88
2022/02/23 00:12:42;;;;;;;20.52;4.57;;;;;;;4.88;100.00;67323.53;5025133;28;20490;-88
2022/02/23 00:15:09;;;;;;;14.93;3.40;;;;;;;4.87;100.00;67317.13;4968116;28;20097;-88
2022/02/23 00:17:36;;;;;;;13.82;3.85;;;;;;;4.83;100.00;67314.66;4979690;28;20172;-88
2022/02/23 00:20:04;;;;;;;14.02;3.85;;;;;;;4.79;100.00;67307.53;5014723;28;20171;-88
2022/02/23 00:22:32;;;;;;;11.43;3.53;;;;;;;4.80;100.00;67308.66;4979059;28;20045;-88
2022/02/23 00:24:57;;;;;;;15.77;3.90;;;;;;;4.79;100.00;67308.09;5006055;28;20070;-88
2022/02/23 00:27:23;;;;;;;25.20;3.85;;;;;;;4.77;100.00;67300.56;4956868;28;20422;-88
2022/02/23 00:29:49;;;;;;;14.60;2.63;;;;;;;4.72;100.00;67303.38;4981403;28;20057;-88
2022/02/23 00:32:14;;;;;;;16.77;3.75;;;;;;;;;;4969273;28;20050;-88
2022/02/23 00:34:40;;;;;;;18.17;4.40;;;;;;;4.74;100.00;67302.44;4984732;28;20042;-88
2022/02/23 00:37:05;;;;;;;16.10;3.83;;;;;;;;;;4951567;28;20057;-87
2022/02/23 00:39:30;;;;;;;19.20;4.15;;;;;;;;;;4957938;28;20049;-88
2022/02/23 00:41:56;;;;;;;12.02;2.70;;;;;;;4.67;100.00;67295.09;4998647;28;20065;-89
2022/02/23 00:44:21;;;;;;;11.90;3.08;;;;;;;;;;4996671;28;20046;-89
2022/02/23 00:46:46;;;;;;;17.75;3.83;;;;;;;;;;5004294;28;20053;-88
2022/02/23 00:49:13;;;;;;;14.90;3.70;;;;;;;4.65;100.00;67298.13;5002321;28;20050;-88
2022/02/23 00:51:38;;;;;;;15.20;3.55;;;;;;;4.65;100.00;67287.56;5000874;28;20046;-88
2022/02/23 00:54:05;;;;;;;14.68;3.63;;;;;;;4.65;100.00;67292.84;4968996;28;20146;-88
2022/02/23 00:56:30;;;;;;;13.70;3.05;;;;;;;4.61;100.00;67287.78;4954743;28;20460;-88
2022/02/23 00:58:55;;;;;;;19.40;3.95;;;;;;;;;;4921101;28;20050;-88
2022/02/23 01:01:21;;;;;;;17.98;3.75;;;;;;;;;;4921674;28;20434;-88
2022/02/23 01:03:46;;;;;;;18.73;4.50;;;;;;;4.58;100.00;67284.38;4913324;28;20039;-88
2022/02/23 01:06:12;;;;;;;20.25;3.67;;;;;;;4.56;100.00;67282.13;4921343;28;20142;-88
2022/02/23 01:08:37;;;;;;;21.50;4.05;;;;;;;;;;4895203;28;20566;-89
2022/02/23 01:11:03;;;;;;;18.55;3.95;;;;;;;4.53;100.00;67279.28;4941971;28;20055;-88
2022/02/23 01:13:29;;;;;;;19.35;4.53;;;;;;;;;;4924401;28;20039;-88
2022/02/23 01:15:54;;;;;;;14.23;3.33;;;;;;;;;;4942844;28;20058;-88
2022/02/23 01:18:20;;;;;;;13.85;2.55;;;;;;;4.42;100.00;67267.44;4916307;28;20035;-88
2022/02/23 01:20:46;;;;;;;21.05;4.15;;;;;;;4.44;100.00;67269.13;4956305;28;20050;-88
2022/02/23 01:23:11;;;;;;;18.63;3.15;;;;;;;;;;4969016;28;20050;-89
2022/02/23 01:25:37;;;;;;;16.95;3.35;;;;;;;4.38;100.00;67262.38;5010628;28;20060;-88
2022/02/23 01:28:05;;;;;;;22.73;4.03;;;;;;;4.33;100.00;67257.28;4986718;28;20515;-88
2022/02/23 01:30:31;;;;;;;15.83;3.70;;;;;;;4.34;100.00;67257.84;4977595;28;20041;-88
2022/02/23 01:32:57;;;;;;;24.02;3.28;;;;;;;4.35;100.00;67261.63;4994136;28;20061;-88
2022/02/23 01:35:23;;;;;;;16.52;4.03;;;;;;;4.33;100.00;67256.72;4945910;28;20066;-88
2022/02/23 01:37:49;;;;;;;17.67;3.67;;;;;;;4.27;100.00;67251.06;4966979;28;20062;-89
2022/02/23 01:40:14;;;;;;;12.15;2.45;;;;;;;4.27;100.00;67245.81;4931742;28;20089;-88
2022/02/23 01:42:40;;;;;;;18.17;2.92;;;;;;;4.26;100.00;67249.94;4912542;28;20047;-88
2022/02/23 01:45:07;;;;;;;13.50;4.15;;;;;;;4.30;100.00;67248.63;4945134;28;20708;-88
2022/02/23 01:47:33;;;;;;;17.77;3.10;;;;;;;;;;4916399;29;20039;-88
2022/02/23 01:49:58;;;;;;;23.63;3.92;;;;;;;4.25;100.00;67248.25;4903075;28;20047;-88
2022/02/23 01:52:25;;;;;;;18.75;3.08;;;;;;;4.23;100.00;67246.56;4907975;29;20051;-88
2022/02/23 01:54:53;;;;;;;13.00;3.00;;;;;;;;;;4925853;29;20455;-88
2022/02/23 01:57:20;;;;;;;11.88;3.20;;;;;;;4.24;100.00;67252.41;4901473;29;20070;-89
2022/02/23 01:59:46;;;;;;;19.85;3.72;;;;;;;4.25;100.00;67251.44;4919700;29;20063;-89
2022/02/23 02:02:11;;;;;;;13.95;3.72;;;;;;;;;;4942775;28;20538;-88
2022/02/23 02:04:37;;;;;;;17.42;3.58;;;;;;;4.25;100.00;67248.81;4903178;28;20054;-88
2022/02/23 02:07:02;;;;;;;15.65;3.40;;;;;;;4.20;100.00;67245.81;4965680;28;20074;-88
2022/02/23 02:09:28;;;;;;;18.13;3.17;;;;;;;4.19;100.00;67236.78;4968702;28;20042;-88
2022/02/23 02:11:53;;;;;;;20.50;3.45;;;;;;;;;;4993986;28;20515;-88
2022/02/23 02:14:18;;;;;;;20.15;3.83;;;;;;;;;;4997055;28;20286;-89
2022/02/23 02:16:44;;;;;;;20.83;3.72;;;;;;;4.17;100.00;67239.81;5015646;28;20100;-88
2022/02/23 02:19:09;;;;;;;15.35;4.15;;;;;;;4.16;100.00;67240.72;5021082;28;20045;-88
2022/02/23 02:21:58;;;;;;;18.33;3.88;;;;;;;4.15;100.00;67236.97;5012672;28;20041;-88
2022/02/23 02:24:26;;;;;;;13.00;3.03;;;;;;;4.11;100.00;67232.44;5012498;28;20443;-88
2022/02/23 02:26:52;;;;;;;16.88;2.60;;;;;;;4.10;100.00;67231.88;5015540;28;20128;-89
2022/02/23 02:29:18;;;;;;;21.55;4.72;;;;;;;4.08;100.00;67229.63;5014999;28;20137;-88
2022/02/23 02:31:45;;;;;;;19.08;4.70;;;;;;;4.10;100.00;67226.63;5019232;28;20072;-89
2022/02/23 02:34:10;;;;;;;15.52;3.33;;;;;;;4.06;100.00;67227.94;5005838;28;20049;-88
2022/02/23 02:36:36;;;;;;;14.98;2.97;;;;;;;4.08;100.00;67229.63;5023989;28;20119;-88
2022/02/23 02:39:03;;;;;;;11.40;3.38;;;;;;;4.05;100.00;67226.25;5024796;28;20049;-88
2022/02/23 02:41:29;;;;;;;20.95;3.42;;;;;;;4.09;100.00;67230.22;4989475;28;20201;-88
2022/02/23 02:43:54;;;;;;;11.38;2.60;;;;;;;4.02;100.00;67222.84;4985372;28;20061;-89
2022/02/23 02:46:20;;;;;;;17.73;4.13;;;;;;;;;;4987419;28;20434;-88
2022/02/23 02:48:45;;;;;;;19.52;3.47;;;;;;;4.00;100.00;67215.91;4987427;28;20177;-88
2022/02/23 02:51:11;;;;;;;15.43;3.72;;;;;;;3.95;100.00;67210.25;4958410;28;20044;-89
2022/02/23 02:53:36;;;;;;;19.38;4.00;;;;;;;;;;4920859;28;20051;-88
2022/02/23 02:56:02;;;;;;;17.58;3.83;;;;;;;3.92;100.00;67211.59;4908476;29;20059;-88
2022/02/23 02:58:28;;;;;;;21.02;4.43;;;;;;;;;;4926724;28;20046;-89
2022/02/23 03:00:53;;;;;;;21.23;2.83;;;;;;;3.92;100.00;67211.59;4929174;28;20134;-88
2022/02/23 03:03:19;;;;;;;13.95;3.10;;;;;;;;;;4933497;28;20110;-88
2022/02/23 03:05:44;;;;;;;12.32;2.65;;;;;;;3.94;100.00;67213.81;4942269;28;20122;-89
2022/02/23 03:08:10;;;;;;;23.35;3.58;;;;;;;;;;4957181;28;20052;-89
2022/02/23 03:10:35;;;;;;;18.35;4.18;;;;;;;3.95;100.00;67215.53;4947854;28;20494;-88
2022/02/23 03:13:00;;;;;;;12.43;2.28;;;;;;;;;;4982032;28;20085;-88
2022/02/23 03:15:28;;;;;;;11.77;2.72;;;;;;;3.93;100.00;67213.25;4962748;28;20038;-89
2022/02/23 03:17:53;;;;;;;9.48;2.70;;;;;;;;;;4943704;28;20042;-88
2022/02/23 03:20:18;;;;;;;22.33;4.10;;;;;;;3.89;100.00;67208.75;4962516;28;20046;-89
2022/02/23 03:22:44;;;;;;;15.18;3.80;;;;;;;3.93;100.00;67218.53;4924743;28;20079;-88
2022/02/23 03:25:10;;;;;;;15.55;2.80;;;;;;;3.87;100.00;67211.19;4943492;28;20521;-88
2022/02/23 03:27:35;;;;;;;19.67;3.92;;;;;;;3.88;100.00;67207.06;4947758;28;20117;-88
2022/02/23 03:30:01;;;;;;;17.70;2.50;;;;;;;3.87;100.00;67206.50;4911574;28;20060;-90
2022/02/23 03:32:26;;;;;;;16.90;4.03;;;;;;;;;;4940473;28;20054;-88
2022/02/23 03:34:51;;;;;;;21.45;3.97;;;;;;;3.86;100.00;67205.38;4964392;28;20054;-88
2022/02/23 03:37:16;;;;;;;12.32;2.85;;;;;;;;;;4924645;28;20052;-88
2022/02/23 03:39:42;;;;;;;19.60;3.70;;;;;;;;;;4922015;29;20090;-88
2022/02/23 03:42:07;;;;;;;17.50;3.47;;;;;;;;;;4904798;29;20112;-88
2022/02/23 03:44:33;;;;;;;15.57;3.42;;;;;;;3.83;100.00;67202.56;4905010;29;20071;-88
2022/02/23 03:46:58;;;;;;;19.10;3.60;;;;;;;;;;4908438;29;20047;-89
2022/02/23 03:49:23;;;;;;;14.48;3.30;;;;;;;3.77;100.00;67198.41;4941390;28;20569;-88
2022/02/23 03:51:49;;;;;;;18.85;3.40;;;;;;;3.70;100.00;67187.88;4930703;28;20059;-88
2022/02/23 03:54:14;;;;;;;18.63;4.13;;;;;;;;;;4943156;28;20654;-88
2022/02/23 03:56:42;;;;;;;17.33;3.95;;;;;;;3.71;100.00;67188.44;4955570;28;20051;-88
2022/02/23 03:59:11;;;;;;;18.15;3.60;;;;;;;3.66;100.00;67182.81;4958681;28;20230;-88
2022/02/23 04:01:39;;;;;;;20.70;4.60;;;;;;;3.67;100.00;67191.84;4946462;28;20086;-88
2022/02/23 04:04:05;;;;;;;20.08;3.38;;;;;;;;;;4987856;28;20037;-89
2022/02/23 04:06:31;;;;;;;13.93;2.95;;;;;;;3.56;100.00;67172.66;5021015;28;20594;-88
2022/02/23 04:08:57;;;;;;;16.20;3.80;;;;;;;;;;5001716;28;20049;-89
2022/02/23 04:11:23;;;;;;;19.30;3.58;;;;;;;3.49;100.00;67170.03;5011847;28;20049;-89
2022/02/23 04:13:49;;;;;;;22.98;3.60;;;;;;;3.49;100.00;67164.19;5015230;28;20053;-89
2022/02/23 04:16:14;;;;;;;20.27;3.95;;;;;;;;;;4994521;28;20045;-88
2022/02/23 04:18:41;;;;;;;19.38;3.95;;;;;;;3.45;100.00;67162.31;5019054;28;20514;-89
2022/02/23 04:21:07;;;;;;;15.80;2.72;;;;;;;;;;5002118;28;20049;-88
2022/02/23 04:23:32;;;;;;;18.02;3.75;;;;;;;3.36;100.00;67153.28;4994978;28;20048;-88
2022/02/23 04:25:58;;;;;;;12.57;2.72;;;;;;;3.35;100.00;67152.16;4998529;28;20523;-89
2022/02/23 04:28:26;;;;;;;17.00;3.88;;;;;;;;;;5023121;28;20407;-88
2022/02/23 04:30:52;;;;;;;16.00;3.95;;;;;;;3.34;100.00;67148.41;5012974;28;20133;-88
2022/02/23 04:33:18;;;;;;;14.55;3.28;;;;;;;3.35;100.00;67151.59;5020606;28;20049;-88
2022/02/23 04:35:43;;;;;;;23.05;4.13;;;;;;;;;;4979567;28;20042;-88
2022/02/23 04:38:09;;;;;;;13.10;2.95;;;;;;;3.30;100.00;67143.31;4975980;28;20100;-88
2022/02/23 04:40:34;;;;;;;19.83;3.65;;;;;;;3.28;100.00;67141.66;4986548;28;20054;-88
2022/02/23 04:43:00;;;;;;;14.50;3.58;;;;;;;3.29;100.00;67142.78;4961313;28;20046;-88
2022/02/23 04:45:25;;;;;;;18.88;5.28;;;;;;;3.27;100.00;67143.13;4982606;28;20049;-88
2022/02/23 04:47:51;;;;;;;13.77;3.47;;;;;;;3.22;100.00;67137.50;4999261;28;20402;-88
2022/02/23 04:50:16;;;;;;;17.25;4.10;;;;;;;3.21;100.00;67133.19;4963374;28;20046;-88
2022/02/23 04:52:41;;;;;;;15.38;3.90;;;;;;;3.23;100.00;67140.69;4983515;28;21895;-88
2022/02/23 04:55:08;;;;;;;14.45;3.50;;;;;;;3.23;100.00;67136.00;4979113;28;20051;-88
2022/02/23 04:57:33;;;;;;;16.67;4.22;;;;;;;3.23;100.00;67136.00;4987123;28;20049;-88
2022/02/23 04:59:59;;;;;;;21.38;4.35;;;;;;;3.21;100.00;67133.19;4970845;28;20513;-88
2022/02/23 05:02:25;;;;;;;19.70;4.00;;;;;;;3.15;100.00;67130.16;5010238;28;20484;-88
2022/02/23 05:04:50;;;;;;;13.88;3.38;;;;;;;;;;5004880;28;20419;-88
2022/02/23 05:07:15;;;;;;;19.88;4.40;;;;;;;3.14;100.00;67126.41;5011819;28;20279;-88
2022/02/23 05:09:41;;;;;;;15.30;3.58;;;;;;;3.14;100.00;67128.50;5024905;28;20034;-88
2022/02/23 05:12:08;;;;;;;18.25;3.45;;;;;;;3.12;100.00;67124.16;5036459;28;20053;-88
2022/02/23 05:14:33;;;;;;;19.90;4.47;;;;;;;;;;5000606;28;20046;-87
2022/02/23 05:16:59;;;;;;;19.33;4.65;;;;;;;3.12;100.00;67124.16;4979913;28;20571;-88
2022/02/23 05:19:24;;;;;;;22.48;5.32;;;;;;;3.13;100.00;67124.72;4968676;28;20058;-88
2022/02/23 05:21:49;;;;;;;17.50;4.68;;;;;;;3.17;100.00;67123.97;4938794;28;20038;-88
2022/02/23 05:24:15;;;;;;;15.38;4.68;;;;;;;3.16;100.00;67131.31;4994081;28;21028;-88
2022/02/23 05:26:40;;;;;;;19.63;4.55;;;;;;;;;;4971312;28;20549;-88
2022/02/23 05:29:06;;;;;;;20.70;4.43;;;;;;;3.14;100.00;67129.06;4982870;28;20496;-88
2022/02/23 05:31:31;;;;;;;16.02;4.03;;;;;;;3.15;100.00;67129.59;4977240;28;20073;-88
2022/02/23 05:33:57;;;;;;;19.75;4.55;;;;;;;3.17;100.00;67123.97;4982646;28;20420;-88
2022/02/23 05:36:22;;;;;;;22.83;4.05;;;;;;;;;;4986087;28;20034;-88
2022/02/23 05:38:47;;;;;;;19.45;4.05;;;;;;;3.11;100.00;67125.66;4964152;28;20049;-88
2022/02/23 05:41:12;;;;;;;13.82;3.72;;;;;;;3.08;100.00;67121.72;5020826;28;20045;-88
2022/02/23 05:43:38;;;;;;;15.40;3.80;;;;;;;3.06;100.00;67119.47;5005472;28;20045;-88
2022/02/23 05:46:03;;;;;;;17.42;4.30;;;;;;;;;;5009044;28;20693;-88
2022/02/23 05:48:28;;;;;;;20.55;4.75;;;;;;;3.10;100.00;67123.97;5029240;28;20060;-87
2022/02/23 05:50:54;;;;;;;22.92;4.85;;;;;;;3.07;100.00;67117.97;5001186;28;20041;-88
2022/02/23 05:53:19;;;;;;;20.60;5.90;;;;;;;3.07;100.00;67123.22;5014528;28;20528;-89
2022/02/23 05:55:45;;;;;;;17.55;5.18;;;;;;;;;;5029554;28;20049;-88
2022/02/23 05:58:10;;;;;;;17.92;4.53;;;;;;;3.08;100.00;67124.34;5030640;28;20040;-88
2022/02/23 06:00:35;;;;;;;18.77;4.70;;;;;;;3.05;100.00;67116.28;5009538;28;20460;-88
2022/02/23 06:03:01;;;;;;;20.08;4.53;;;;;;;3.08;100.00;67114.41;5022890;28;20049;-88
2022/02/23 06:05:26;;;;;;;15.85;4.20;;;;;;;3.05;100.00;67115.69;5027395;28;20045;-88
2022/02/23 06:07:51;;;;;;;15.90;4.20;;;;;;;3.09;100.00;67120.78;5028518;28;20044;-88
2022/02/23 06:10:17;;;;;;;20.65;4.03;;;;;;;3.07;100.00;67123.22;4989776;28;20042;-87
2022/02/23 06:12:42;;;;;;;20.08;4.38;;;;;;;3.10;100.00;67123.97;4989047;28;20056;-86
2022/02/23 06:15:09;;;;;;;19.30;3.55;;;;;;;3.05;100.00;67118.31;4991277;28;20050;-88
2022/02/23 06:17:34;;;;;;;13.00;3.40;;;;;;;3.04;100.00;67117.75;4980857;28;20044;-89
2022/02/23 06:20:00;;;;;;;17.55;3.90;;;;;;;3.07;100.00;67123.22;4979685;28;20046;-88
2022/02/23 06:22:26;;;;;;;12.35;3.67;;;;;;;3.10;100.00;67121.34;4958021;28;20042;-88
2022/02/23 06:24:51;;;;;;;19.77;4.10;;;;;;;;;;4969283;28;20085;-87
2022/02/23 06:27:17;;;;;;;8.55;3.63;;;;;;;3.14;100.00;67125.84;4985524;28;20133;-91
2022/02/23 06:29:43;;;;;;;12.88;3.28;;;;;;;;;;4970452;28;20042;-89
2022/02/23 06:32:08;;;;;;;18.67;4.80;;;;;;;3.19;100.00;67131.47;4937273;28;20506;-88
2022/02/23 06:34:35;;;;;;;13.68;2.75;;;;;;;3.16;100.00;67128.09;4939541;28;20229;-89
2022/02/23 06:37:04;;;;;;;14.07;3.78;;;;;;;3.18;100.00;67130.34;4932619;28;20108;-89
2022/02/23 06:39:38;;;;;;;12.48;3.05;;;;;;;3.16;100.00;67128.09;4947767;28;20834;-90
2022/02/23 06:42:04;;;;;;;21.27;4.07;;;;;;;3.17;100.00;67129.25;4938976;28;20040;-90
2022/02/23 06:44:31;;;;;;;18.45;4.07;;;;;;;3.16;100.00;67128.09;4927830;28;20035;-91
2022/02/23 06:47:00;;;;;;;18.33;3.92;;;;;;;;;;4949114;28;20047;-89
2022/02/23 06:49:26;;;;;;;22.30;4.78;;;;;;;;;;4933216;29;20058;-90
2022/02/23 06:51:56;;;;;;;12.45;5.35;;;;;;;3.16;100.00;67122.84;4931919;29;20039;-90
2022/02/23 06:54:22;;;;;;;18.00;4.22;;;;;;;3.07;100.00;67123.78;4948295;28;20110;-89
2022/02/23 06:57:08;;;;;;;17.77;5.18;;;;;;;;;;4947295;28;20331;-92
2022/02/23 06:59:33;;;;;;;19.17;5.53;;;;;;;3.05;100.00;67111.03;4940736;28;20039;-90
2022/02/23 07:01:59;;;;;;;18.63;5.68;;;;;;;3.02;100.00;67115.53;4933804;29;20431;-90
2022/02/23 07:04:25;;;;;;;18.25;5.68;;;;;;;3.00;100.00;67110.63;4948705;29;20142;-89
2022/02/23 07:06:50;;;;;;;15.10;3.90;;;;;;;2.96;100.00;67100.28;4931762;29;20210;-90
2022/02/23 07:09:15;;;;;;;15.52;4.40;;;;;;;2.95;100.00;67105.00;4994989;28;20042;-89
2022/02/23 07:11:41;;;;;;;16.17;4.63;;;;;;;2.95;100.00;67105.00;5006744;28;20042;-89
2022/02/23 07:14:07;;;;;;;15.13;4.07;;;;;;;;;;5009543;28;20042;-90
2022/02/23 07:16:33;;;;;;;15.60;5.65;;;;;;;2.98;100.00;67107.81;5006899;28;20112;-89
2022/02/23 07:18:59;;;;;;;19.85;5.35;;;;;;;2.99;100.00;67109.50;5009048;28;20046;-90
2022/02/23 07:21:24;;;;;;;17.65;4.85;;;;;;;3.00;100.00;67113.25;5006719;28;20441;-89
2022/02/23 07:23:50;;;;;;;18.75;4.97;;;;;;;3.05;100.00;67115.69;5028332;28;20041;-90
2022/02/23 07:26:16;;;;;;;18.20;5.00;;;;;;;3.10;100.00;67121.91;5016401;28;20136;-90
2022/02/23 07:28:42;;;;;;;15.95;5.28;;;;;;;3.12;100.00;67124.16;5010478;28;20121;-90
2022/02/23 07:31:08;;;;;;;21.52;6.03;;;;;;;;;;5028045;28;20070;-88
2022/02/23 07:33:34;;;;;;;22.08;6.05;;;;;;;;;;5027983;28;20060;-89
2022/02/23 07:35:59;;;;;;;13.63;4.47;;;;;;;;;;5023969;28;20053;-89
2022/02/23 07:38:25;;;;;;;19.08;5.57;;;;;;;;;;5019603;28;20060;-89
2022/02/23 07:40:50;;;;;;;18.30;5.25;;;;;;;3.29;100.00;67142.78;5022739;28;20045;-88
2022/02/23 07:43:15;;;;;;;21.27;5.18;;;;;;;3.33;100.00;67149.91;5021793;28;20095;-88
2022/02/23 07:45:41;;;;;;;17.40;6.85;;;;;;;3.39;100.00;67156.09;4984377;28;20399;-89
2022/02/23 07:48:08;;;;;;;23.23;7.00;;;;;;;3.46;100.00;67160.81;5001184;28;20111;-88
2022/02/23 07:50:34;;;;;;;24.67;6.50;;;;;;;3.48;100.00;67163.06;5016388;28;20411;-89
2022/02/23 07:52:59;;;;;;;20.17;6.82;;;;;;;3.53;100.00;67168.69;4982452;28;20037;-88
2022/02/23 07:55:26;;;;;;;18.50;5.50;;;;;;;3.60;100.00;67179.81;5006966;28;20569;-88
2022/02/23 07:57:51;;;;;;;23.52;7.57;;;;;;;;;;5015137;28;20102;-89
2022/02/23 08:00:20;;;;;;;15.90;4.28;;;;;;;3.74;100.00;67195.03;5023592;28;20045;-89
2022/02/23 08:02:45;;;;;;;14.68;5.38;;;;;;;3.84;100.00;67203.69;5016155;28;20132;-89
2022/02/23 08:05:11;;;;;;;16.95;4.10;;;;;;;3.92;100.00;67211.59;5023578;28;20136;-89
2022/02/23 08:07:36;;;;;;;20.30;5.75;;;;;;;;;;5020976;28;20530;-88
2022/02/23 08:10:03;;;;;;;18.20;5.63;;;;;;;3.99;100.00;67220.03;5022802;28;20045;-89
2022/02/23 08:12:29;;;;;;;19.70;5.88;;;;;;;4.06;100.00;67230.03;5019276;28;20180;-89
2022/02/23 08:14:56;;;;;;;13.00;5.30;;;;;;;4.15;100.00;67237.53;5031627;28;20073;-88
2022/02/23 08:20:07;;;;;;;24.52;6.18;;;;;;;4.25;100.00;67248.25;5044018;28;20110;-88
2022/02/23 08:22:32;;;;;;;16.40;5.15;;;;;;;4.36;100.00;67260.66;5032517;28;20077;-88
2022/02/23 08:24:58;;;;;;;14.93;4.70;;;;;;;4.48;100.00;67268.38;5035922;28;20045;-88
2022/02/23 08:27:24;;;;;;;16.85;6.40;;;;;;;;;;5023172;28;20400;-88
2022/02/23 08:29:54;;;;;;;15.15;5.20;;;;;;;4.55;100.00;67281.56;5019980;28;20633;-89
2022/02/23 08:32:20;;;;;;;13.77;4.30;;;;;;;4.60;100.00;67287.19;5023074;28;20451;-88
2022/02/23 08:34:46;;;;;;;20.90;6.55;;;;;;;;;;5021968;28;20041;-88
2022/02/23 08:37:13;;;;;;;16.10;5.88;;;;;;;4.80;100.00;67308.66;5021816;28;20500;-89
2022/02/23 08:39:40;;;;;;;15.25;4.95;;;;;;;4.86;100.00;67315.41;5024198;28;20034;-89
2022/02/23 08:42:08;;;;;;;17.33;5.60;;;;;;;4.87;100.00;67316.56;5021168;28;20042;-88
2022/02/23 08:44:34;;;;;;;13.73;4.93;;;;;;;4.94;100.00;67325.03;5019768;28;20696;-88
2022/02/23 08:46:59;;;;;;;14.70;5.25;;;;;;;5.06;100.00;67332.72;5024879;28;21710;-88
2022/02/23 08:49:25;;;;;;;19.33;5.65;;;;;;;5.09;100.00;67341.41;5025574;28;20049;-89
2022/02/23 08:51:50;;;;;;;13.02;4.22;;;;;;;;;;5024950;28;20069;-90
2022/02/23 08:54:17;;;;;;;12.50;5.00;;;;;;;;;;5025384;28;20655;-90
2022/02/23 08:56:43;;;;;;;18.15;4.72;;;;;;;5.29;100.00;67362.88;5024200;28;20492;-90
2022/02/23 08:59:09;;;;;;;14.25;5.03;;;;;;;5.38;100.00;67376.25;5027002;28;20045;-90
2022/02/23 09:01:35;;;;;;;15.52;4.57;;;;;;;5.51;100.00;67387.16;5021726;28;20029;-90
2022/02/23 09:04:02;;;;;;;12.52;4.30;;;;;;;5.54;100.00;67390.56;5025247;28;20046;-91
2022/02/23 09:06:29;;;;;;;13.80;4.38;;;;;;;5.60;100.00;67392.59;5019410;28;20132;-91
2022/02/23 09:08:54;;;;;;;20.55;5.25;;;;;;;5.62;100.00;67394.88;5024183;28;20042;-90
2022/02/23 09:11:19;;;;;;;11.23;3.67;;;;;;;;;;5020720;28;20048;-91
2022/02/23 09:13:45;;;;;;;14.43;3.63;;;;;;;5.78;100.00;67411.81;5018795;28;20045;-91
2022/02/23 09:16:10;;;;;;;19.45;5.22;;;;;;;;;;5006504;28;20475;-89
2022/02/23 09:18:36;;;;;;;15.68;3.97;;;;;;;5.87;100.00;67427.84;5024144;28;20144;-91
2022/02/23 09:21:01;;;;;;;11.25;5.13;;;;;;;;;;5023839;28;20493;-90
2022/02/23 09:23:27;;;;;;;17.35;4.43;;;;;;;;;;5041353;28;20057;-90
2022/02/23 09:25:56;;;;;;;12.27;4.50;;;;;;;6.09;100.00;67446.88;5019267;28;20094;-91
2022/02/23 09:28:22;;;;;;;15.77;3.65;;;;;;;6.12;100.00;67455.00;5020204;28;20464;-90
2022/02/23 09:30:48;;;;;;;16.90;4.00;;;;;;;;;;5018023;28;20508;-90
2022/02/23 09:33:14;;;;;;;12.95;4.65;;;;;;;6.16;100.00;67458.94;5023941;28;20068;-90
2022/02/23 09:35:40;;;;;;;19.95;4.93;;;;;;;6.17;100.00;67455.38;5018600;28;20049;-91
2022/02/23 09:38:06;;;;;;;16.25;3.88;;;;;;;;;;5012640;28;20053;-91
2022/02/23 09:40:31;;;;;;;12.82;4.25;;;;;;;;;;5022758;28;20041;-90
2022/02/23 09:42:57;;;;;;;11.43;3.92;;;;;;;6.34;100.00;67479.31;5024520;28;20045;-90
2022/02/23 09:45:22;;;;;;;12.85;4.15;;;;;;;6.47;100.00;67488.72;4993917;28;20049;-89
2022/02/23 09:47:49;;;;;;;12.77;4.53;;;;;;;;;;5014812;28;20049;-91
2022/02/23 09:50:20;;;;;;;17.40;4.13;;;;;;;6.53;100.00;67495.50;5025816;28;20049;-90
2022/02/23 09:52:48;;;;;;;14.57;4.10;;;;;;;6.60;100.00;67508.16;5022618;28;20046;-89
2022/02/23 09:55:14;;;;;;;19.98;4.78;;;;;;;;;;5013951;28;20141;-91
2022/02/23 09:57:39;;;;;;;13.07;4.03;;;;;;;;;;5025134;28;20715;-90
2022/02/23 10:00:06;;;;;;;15.60;4.15;;;;;;;6.66;99.11;67514.94;5022801;28;20059;-90
2022/02/23 10:02:35;;;;;;;14.05;5.10;;;;;;;6.77;100.00;67521.53;5023171;28;20400;-91
2022/02/23 10:05:01;;;;;;;18.70;3.75;;;;;;;;;;5025886;28;20041;-90
2022/02/23 10:07:30;;;;;;;17.92;4.18;;;;;;;;;;5024214;28;20146;-90
2022/02/23 10:09:57;;;;;;;13.45;3.80;;;;;;;6.88;98.69;67530.75;5023535;28;20038;-91
2022/02/23 10:12:26;;;;;;;12.15;3.65;;;;;;;6.93;98.53;67544.91;5018762;28;20041;-91
2022/02/23 10:15:07;;;;;;;16.63;4.70;;;;;;;;;;5020719;28;20041;-90
2022/02/23 10:17:37;;;;;;;16.25;4.05;;;;;;;7.13;98.23;67559.03;5021318;28;20037;-90
2022/02/23 10:20:03;;;;;;;15.55;3.53;;;;;;;;;;5021414;28;20404;-90
2022/02/23 10:22:28;;;;;;;10.68;3.50;;;;;;;;;;5024752;28;20040;-91
2022/02/23 10:24:58;;;;;;;13.07;3.58;;;;;;;7.26;95.65;67580.56;5005520;28;21362;-90
2022/02/23 10:27:25;;;;;;;12.93;3.58;;;;;;;;;;5024806;28;20041;-91
2022/02/23 10:29:54;;;;;;;17.15;3.80;;;;;;;7.40;93.42;67591.09;5023059;28;20124;-91
2022/02/23 10:32:25;;;;;;;15.05;4.53;;;;;;;7.38;93.82;67589.41;5020850;28;20065;-91
2022/02/23 10:34:52;;;;;;;14.50;3.63;;;;;;;7.49;93.62;67606.03;5018155;28;20107;-91
2022/02/23 10:37:19;;;;;;;10.38;4.00;;;;;;;;;;5021806;28;20049;-90
2022/02/23 10:39:48;;;;;;;16.33;4.10;;;;;;;;;;5023462;28;20041;-91
2022/02/23 10:42:15;;;;;;;12.30;4.28;;;;;;;;;;5015098;28;20045;-91
2022/02/23 10:44:46;;;;;;;14.75;4.30;;;;;;;7.86;93.87;67642.59;5011040;28;20037;-91
2022/02/23 10:47:33;;;;;;;10.80;4.53;;;;;;;7.88;91.82;67650.19;5018151;28;20048;-91
2022/02/23 10:50:08;;;;;;;15.60;4.15;;;;;;;7.93;91.96;67649.41;5019839;28;20053;-91
2022/02/23 10:52:36;;;;;;;14.32;4.28;;;;;;;7.94;90.74;67655.81;5003538;28;20048;-91
2022/02/23 10:55:29;;;;;;;11.15;3.53;;;;;;;8.04;88.43;67661.84;5016912;28;20053;-90
2022/02/23 10:57:57;;;;;;;9.75;3.28;;;;;;;;;;5021776;28;20616;-91
2022/02/23 11:00:35;;;;;;;13.27;5.15;;;;;;;8.16;88.10;67675.44;5023771;28;20045;-91
2022/02/23 11:03:01;;;;;;;13.48;3.70;;;;;;;8.30;89.67;67691.28;4972400;28;20103;-90
2022/02/23 11:05:27;;;;;;;9.88;3.28;;;;;;;8.33;86.28;67694.69;5024664;28;20440;-92
2022/02/23 11:07:56;;;;;;;12.35;3.17;;;;;;;8.39;86.95;67700.38;5022543;28;20045;-91
2022/02/23 11:10:22;;;;;;;7.60;2.92;;;;;;;8.39;84.03;67700.94;5014173;28;20046;-91
2022/02/23 11:12:50;;;;;;;13.13;2.92;;;;;;;8.43;83.49;67710.19;5008200;28;20125;-90
2022/02/23 11:15:19;;;;;;;9.50;2.92;;;;;;;;;;5012626;28;20080;-91
2022/02/23 11:17:45;;;;;;;10.43;3.00;;;;;;;;;;4975706;28;20045;-90
2022/02/23 11:20:13;;;;;;;9.18;2.75;;;;;;;;;;4992938;28;20145;-90
2022/02/23 11:22:39;;;;;;;13.35;3.20;;;;;;;8.64;82.88;67728.69;4994050;28;20481;-89
2022/02/23 11:25:05;;;;;;;10.65;2.95;;;;;;;8.73;81.71;67738.31;5008026;28;20045;-89
2022/02/23 11:27:36;;;;;;;8.20;2.50;;;;;;;8.74;82.65;67739.44;5016226;28;20061;-89
2022/02/23 11:30:05;;;;;;;11.15;2.58;;;;;;;8.73;83.90;67738.88;4962691;28;20038;-88
2022/02/23 11:32:42;;;;;;;8.07;2.97;;;;;;;8.81;82.47;67747.97;4970736;28;20566;-89
2022/02/23 11:35:08;;;;;;;9.70;2.95;;;;;;;;;;4953235;28;20075;-88
2022/02/23 11:37:34;;;;;;;10.07;3.28;;;;;;;8.91;83.13;67764.03;4973700;28;20085;-88
2022/02/23 11:39:59;;;;;;;10.15;2.95;;;;;;;;;;4991346;28;20077;-90
2022/02/23 11:42:25;;;;;;;10.52;2.88;;;;;;;9.08;81.45;67776.84;4989032;28;20061;-88
2022/02/23 11:45:13;;;;;;;11.02;2.95;;;;;;;9.14;82.75;67783.66;4991180;28;20474;-89
2022/02/23 11:48:06;;;;;;;8.52;2.53;;;;;;;9.13;78.37;67782.53;4972817;28;20042;-88
2022/02/23 11:57:03;;;;;;;17.60;2.40;;;;;;;;;;5004389;28;20085;-88
2022/02/23 11:59:50;;;;;;;10.85;2.25;;;;;;;;;;4997843;28;20046;-87
2022/02/23 12:02:15;;;;;;;10.05;2.97;;;;;;;;;;5017644;28;20034;-89
2022/02/23 12:04:50;;;;;;;7.88;2.10;;;;;;;9.36;79.21;67808.03;5009609;28;20045;-91
2022/02/23 12:07:17;;;;;;;8.77;1.90;;;;;;;9.38;76.39;67808.22;5004354;28;20483;-87
2022/02/23 12:09:55;;;;;;;10.63;2.72;;;;;;;9.43;79.31;67821.25;5027276;28;20056;-88
2022/02/23 12:12:37;;;;;;;7.03;1.83;;;;;;;;;;5023182;28;20068;-87
2022/02/23 12:15:04;;;;;;;7.20;2.03;;;;;;;;;;5026351;28;20053;-87
2022/02/23 12:17:59;;;;;;;8.60;2.88;;;;;;;9.60;77.62;67832.56;5012867;28;20037;-88
2022/02/23 12:20:37;;;;;;;11.02;2.78;;;;;;;9.63;75.48;67838.63;4988900;28;20072;-88